ウランバートル の空港の天気 - METARとTAF

チンギスハーン国際空港 ( ZMUB / ULN ) - モンゴル ウランバートル
飛行場実況気象(Metar)
観測時間01/21 01:00 ULAT (01/20 17:00 UTC)
風向・風速不定 1m/s
視程10km以上
天気現象
なし
気温-28℃
湿度75%
気圧1025hPa
METARZMUB 201700Z VRB01MPS CAVOK M28/M31 Q1025 NOSIG RMK QFE660.4 72
過去の天気等 Google飛行場航空写真 Wunderground天気予報

過去48時間のMETAR

飛行場予報(TAF)
発表時間: 1/21 00:40 ULAT (1/20 16:40 UTC)
予報対象時間: 21日2時 ULAT ~ 22日8時 ULAT
風向・風速不定 2m/s
視程6,000m
なし
21日8時 ULAT ~ 21日10時 ULAT に徐々に
視程3,000m
天気現象
21日13時 ULAT ~ 21日15時 ULAT に徐々に
視程6,000m
TAF ZMUB 201640Z 2018/2124 VRB02MPS 6000 NSC TNM36/2023Z TXM18/2106Z
BECMG 2100/2102 3000 FU
BECMG 2105/2107 6000